Terminal Aerodrome Forecast
Issued by NWS

Home | Current Version | Previous Version | Text Only | Print | Product List | Glossary On
Versions: 1 2 3 4 5 6 7 8 9 10 11 12
899
FTUS45 KABQ 052323
TAFFMN
TAF
KFMN 052323Z 0600/0624 13010G20KT P6SM VCSH BKN100
     FM060500 10010KT P6SM SCT120 SCT200
     FM061700 17014G24KT P6SM SCT100=

USA.gov is the U.S. government's official web portal to all federal, state and local government web resources and services.